To NAV CANADA Home Page Login to a new session Search on AWWS site Disclaimer Vers la page française équivalente Tips FAQ What's new on the site To the Forecasts and Observations / NOTAM section To "File a Flight Plan" website Publications and other links Update of the User's profile FIC Telephone Numbers My Weather Data Folder Route Weather Data Regional Weather Data Local Weather Data To the Forecasts and Observations / NOTAM section
Request Generated 10/19/2018 at 15:28:00 UTC . Weather information available at that time is displayed.

METAR/TAF

GILLAM/MB    

METAR CYGX 191500Z 34019G24KT 7SM -SN SCT004 OVC020 M01/M03 A2962 RMK ST3SC5 SLP044=
SPECI CYGX 191424Z 33014KT 7SM -SN SCT004 OVC020 M01/M02 A2962 RMK ST3SC5 SLP041=
SPECI CYGX 191420Z 33014G19KT 4SM -SN BKN004 OVC020 M01/M02 A2962 RMK ST6SC2 SLP041=
SPECI CYGX 191413Z 32014KT 1 1/2SM -SN OVC004 M01/M02 A2962 RMK SN2ST6 SLP041=
METAR CYGX 191400Z 33015G20KT 4SM -SN BKN004 OVC020 M01/M02 A2961 RMK ST6SC2 SLP040=
SPECI CYGX 191358Z 32015KT 4SM -SN BKN004 OVC020 M01/M02 A2961 RMK ST6SC2 SLP039=
SPECI CYGX 191350Z 32013KT 1 1/2SM -SN OVC004 M01/M02 A2961 RMK ST8 SLP039=
SPECI CYGX 191337Z 32014KT 1/2SM -SN OVC004 M01/M02 A2961 RMK SN6ST2 SLP039=
SPECI CYGX 191322Z 33014G21KT 1/2SM -SN VV004 M01/M02 A2961 RMK SN8 SLP038=
SPECI CYGX 191315Z 33017KT 1/8SM +SN VV002 M02/M02 A2960 RMK SN8 SLP037=
SPECI CYGX 191313Z 33015KT 1/2SM SN VV004 M02/M02 A2960 RMK SN8 SLP037=
METAR CYGX 191300Z 32014KT 1 1/2SM -SN OVC006 M02/M03 A2960 RMK SN6SF2 SLP036=

TAF AMD CYGX 191337Z 1913/2001 32012KT P6SM SCT008 OVC025 TEMPO
1913/1916 1/2SM SHSN VV006
FM191600 33020G30KT P6SM OVC025 TEMPO 1916/2001 2SM -SN OVC012
RMK NXT FCST BY 191900Z=
Your time UTC time
Weather data provided by Environment Canada and NAV CANADA